Hallsville, Ohio
Current Conditions -  °F | °C
As of 5:14 AM on Saturday 22 Nov 2014 (Local Time) from KRZT Reporting Station
Unknown Precip Unknown Precip  
Wind Chill: 18°   Ceiling: 3900
Heat Index: 28°   Visibility: 10mi
Dew Point: 12°   Wind: 12mph
Humidity: 51%   Direction: 190°S
Pressure: 30.32"   Gusts: NA
Location:  39.44°N, 82.83°W
Report Text: KRZT 221014Z AUTO 19010KT 10SM UP OVC039 M02/M11 A3032 RMK AO2
Loading
Personal Weather Stations






























Interactive Weather Map New forecast layout! Learn more

10-Day Weather Forecast

Advertisements
Track Severe Weather on mobile